createdAt,value
2022-10-20T00:00:06.850Z,69.91
2022-10-20T00:02:08.471Z,69.87
2022-10-20T00:04:10.084Z,70.17
2022-10-20T00:06:20.281Z,69.46
2022-10-20T00:08:21.915Z,69.81
2022-10-20T00:10:23.534Z,69.73
2022-10-20T00:12:25.184Z,69.80
2022-10-20T00:14:26.844Z,69.70
2022-10-20T00:16:31.254Z,69.38
2022-10-20T00:18:33.260Z,69.70
2022-10-20T00:20:34.872Z,69.76
2022-10-20T00:22:36.767Z,69.80
2022-10-20T00:24:38.593Z,69.74
2022-10-20T00:26:40.459Z,69.82
2022-10-20T00:28:43.163Z,69.79
2022-10-20T00:30:44.957Z,69.70
2022-10-20T00:32:47.989Z,69.59
2022-10-20T00:34:49.548Z,69.44
2022-10-20T00:36:51.531Z,69.54
2022-10-20T00:39:00.745Z,69.73
2022-10-20T00:41:05.340Z,69.94
2022-10-20T00:43:13.137Z,69.47
2022-10-20T00:45:17.619Z,69.44
2022-10-20T00:47:54.647Z,69.37
2022-10-20T00:50:01.169Z,69.17
2022-10-20T00:52:03.088Z,69.54
2022-10-20T00:54:12.011Z,69.37
2022-10-20T00:56:14.697Z,69.67
2022-10-20T00:58:16.966Z,69.51
2022-10-20T01:00:18.788Z,69.62
2022-10-20T01:02:20.607Z,69.31
2022-10-20T01:04:22.956Z,69.51
2022-10-20T01:06:24.665Z,69.64
2022-10-20T01:08:26.315Z,69.80
2022-10-20T01:10:37.423Z,69.88
2022-10-20T01:12:54.009Z,70.84
2022-10-20T01:17:26.383Z,70.87
2022-10-20T01:20:04.697Z,70.76
2022-10-20T01:22:09.458Z,70.80
2022-10-20T01:24:26.257Z,71.51
2022-10-20T01:26:33.758Z,71.07
2022-10-20T01:29:07.679Z,71.26
2022-10-20T01:31:26.694Z,71.51
2022-10-20T01:33:39.914Z,71.60
2022-10-20T01:36:00.399Z,71.43
2022-10-20T01:38:14.754Z,71.08
2022-10-20T01:41:05.730Z,71.32
2022-10-20T01:43:11.934Z,71.06
2022-10-20T01:45:15.623Z,71.01
2022-10-20T01:47:18.516Z,71.27
2022-10-20T01:49:20.364Z,71.45
2022-10-20T01:51:22.018Z,71.25
2022-10-20T01:53:23.635Z,71.30
2022-10-20T01:55:25.755Z,71.12
2022-10-20T01:57:52.054Z,70.96
2022-10-20T02:00:17.293Z,71.28
2022-10-20T02:02:21.556Z,70.91
2022-10-20T02:04:33.189Z,71.04
2022-10-20T02:06:37.498Z,71.11
2022-10-20T02:08:55.824Z,71.00
2022-10-20T02:11:05.462Z,71.19
2022-10-20T02:13:10.184Z,71.24
2022-10-20T02:15:17.261Z,71.21
2022-10-20T02:17:19.893Z,71.09
2022-10-20T02:19:25.809Z,71.41
2022-10-20T02:21:27.818Z,71.07
2022-10-20T02:23:35.132Z,71.04
2022-10-20T02:25:40.498Z,71.01
2022-10-20T02:27:46.727Z,71.53
2022-10-20T02:29:55.781Z,71.25
2022-10-20T02:31:58.234Z,71.64
2022-10-20T02:34:00.015Z,71.56
2022-10-20T02:36:05.611Z,72.09
2022-10-20T02:38:07.355Z,71.95
2022-10-20T02:40:09.473Z,71.84
2022-10-20T02:42:12.425Z,71.94
2022-10-20T02:44:14.015Z,71.64
2022-10-20T02:46:17.308Z,71.75
2022-10-20T02:48:19.187Z,71.53
2022-10-20T02:50:20.836Z,71.97
2022-10-20T02:52:22.490Z,72.08
2022-10-20T02:54:24.164Z,71.83
2022-10-20T02:56:27.625Z,71.95
2022-10-20T02:58:31.998Z,72.19
2022-10-20T03:00:34.113Z,72.36
2022-10-20T03:02:35.889Z,72.29
2022-10-20T03:04:37.481Z,72.36
2022-10-20T03:06:39.955Z,72.73
2022-10-20T03:08:42.754Z,72.50
2022-10-20T03:10:44.458Z,72.32
2022-10-20T03:12:46.094Z,72.41
2022-10-20T03:14:47.736Z,72.64
2022-10-20T03:16:49.583Z,72.52
2022-10-20T03:18:51.431Z,72.43
2022-10-20T03:20:54.265Z,72.39
2022-10-20T03:22:55.970Z,72.50
2022-10-20T03:24:57.572Z,72.42
2022-10-20T03:27:06.035Z,72.32
2022-10-20T03:29:07.853Z,73.06
2022-10-20T03:31:10.130Z,72.36
2022-10-20T03:33:11.973Z,73.03
2022-10-20T03:35:13.721Z,73.23
2022-10-20T03:37:15.339Z,73.16
2022-10-20T03:39:17.468Z,73.91
2022-10-20T03:41:19.118Z,74.39
2022-10-20T03:43:20.961Z,73.93
2022-10-20T03:45:22.647Z,74.38
2022-10-20T03:47:24.379Z,74.10
2022-10-20T03:49:26.106Z,73.88
2022-10-20T03:51:27.753Z,73.93
2022-10-20T03:53:29.928Z,73.57
2022-10-20T03:55:31.803Z,73.93
2022-10-20T03:57:33.670Z,73.96
2022-10-20T03:59:35.551Z,73.71
2022-10-20T04:01:37.603Z,73.89
2022-10-20T04:03:39.276Z,74.17
2022-10-20T04:05:41.126Z,74.31
2022-10-20T04:07:42.975Z,74.48
2022-10-20T04:09:44.560Z,74.47
2022-10-20T04:11:46.247Z,74.88
2022-10-20T04:13:48.020Z,75.03
2022-10-20T04:15:49.971Z,74.56
2022-10-20T04:17:51.556Z,74.47
2022-10-20T04:19:53.215Z,74.35
2022-10-20T04:21:54.830Z,74.65
2022-10-20T04:23:56.544Z,74.12
2022-10-20T04:25:58.141Z,74.64
2022-10-20T04:28:00.249Z,74.26
2022-10-20T04:30:01.914Z,74.58
2022-10-20T04:32:03.998Z,74.52
2022-10-20T04:34:05.800Z,74.75
2022-10-20T04:36:12.000Z,74.73
2022-10-20T04:38:13.592Z,74.85
2022-10-20T04:40:15.229Z,74.95
2022-10-20T04:42:18.180Z,74.95
2022-10-20T04:44:19.918Z,75.27
2022-10-20T04:46:21.589Z,75.47
2022-10-20T04:48:23.554Z,75.47
2022-10-20T04:50:25.179Z,75.31
2022-10-20T04:52:28.869Z,75.54
2022-10-20T04:54:30.495Z,75.14
2022-10-20T04:56:32.158Z,75.52
2022-10-20T04:58:34.763Z,75.65
2022-10-20T05:00:37.776Z,75.92
2022-10-20T05:02:39.471Z,75.92
2022-10-20T05:04:41.141Z,75.90
2022-10-20T05:06:42.732Z,76.12
2022-10-20T05:08:46.675Z,76.35
2022-10-20T05:10:48.460Z,76.46
2022-10-20T05:12:50.124Z,76.46
2022-10-20T05:14:51.847Z,76.44
2022-10-20T05:16:57.273Z,76.52
2022-10-20T05:18:59.150Z,77.25
2022-10-20T05:21:09.447Z,77.30
2022-10-20T05:23:11.966Z,77.58
2022-10-20T05:25:35.138Z,77.23
2022-10-20T05:27:35.238Z,77.74
2022-10-20T05:29:36.814Z,77.45
2022-10-20T05:31:40.600Z,77.80
2022-10-20T05:33:51.123Z,77.66
2022-10-20T05:35:52.759Z,77.71
2022-10-20T05:37:54.643Z,77.62
2022-10-20T05:39:56.274Z,77.38
2022-10-20T05:41:57.954Z,77.34
2022-10-20T05:44:02.293Z,77.35
2022-10-20T05:46:04.908Z,76.65
2022-10-20T05:48:06.717Z,77.00
2022-10-20T05:50:09.594Z,77.03
2022-10-20T05:52:11.387Z,77.15
2022-10-20T05:54:13.925Z,77.29
2022-10-20T05:56:18.724Z,76.96
2022-10-20T05:58:22.969Z,77.42
2022-10-20T06:00:30.742Z,77.34
2022-10-20T06:02:32.523Z,77.66
2022-10-20T06:04:34.297Z,76.95
2022-10-20T06:06:36.327Z,77.10
2022-10-20T06:08:37.952Z,77.07
2022-10-20T06:10:39.551Z,77.01
2022-10-20T06:12:41.275Z,77.12
2022-10-20T06:14:42.898Z,77.12
2022-10-20T06:16:45.043Z,76.64
2022-10-20T06:18:46.804Z,77.16
2022-10-20T06:20:48.444Z,77.17
2022-10-20T06:22:50.103Z,77.47
2022-10-20T06:24:51.820Z,77.86
2022-10-20T06:27:00.891Z,78.17
2022-10-20T06:29:04.955Z,78.74
2022-10-20T06:31:16.995Z,80.02
2022-10-20T06:33:18.581Z,80.27
2022-10-20T06:35:20.193Z,80.63
2022-10-20T06:37:21.846Z,80.45
2022-10-20T06:39:24.690Z,81.25
2022-10-20T06:41:27.577Z,81.42
2022-10-20T06:43:29.273Z,81.26
2022-10-20T06:45:31.132Z,81.50
2022-10-20T06:47:32.830Z,81.93
2022-10-20T06:49:34.573Z,81.94
2022-10-20T06:51:37.533Z,82.04
2022-10-20T06:53:42.694Z,82.06
2022-10-20T06:56:02.323Z,82.14
2022-10-20T06:58:17.059Z,81.70
2022-10-20T07:00:18.904Z,81.69
2022-10-20T07:02:21.933Z,82.09
2022-10-20T07:04:23.956Z,82.61
2022-10-20T07:06:30.832Z,82.67
2022-10-20T07:08:34.976Z,82.73
2022-10-20T07:10:36.663Z,82.66
2022-10-20T07:12:38.810Z,83.76
2022-10-20T07:14:40.583Z,84.02
2022-10-20T07:16:42.318Z,83.91
2022-10-20T07:20:51.254Z,83.32
2022-10-20T07:22:52.973Z,83.12
2022-10-20T07:24:54.722Z,82.98
2022-10-20T07:27:06.435Z,82.99
2022-10-20T07:29:09.719Z,83.23
2022-10-20T07:31:20.782Z,82.79
2022-10-20T07:33:22.899Z,83.07
2022-10-20T07:35:24.585Z,83.25
2022-10-20T07:37:26.274Z,83.13
2022-10-20T07:39:28.815Z,82.83
2022-10-20T07:41:31.490Z,83.12
2022-10-20T07:43:33.200Z,83.37
2022-10-20T07:45:34.945Z,83.88
2022-10-20T07:47:38.288Z,83.94
2022-10-20T07:49:45.102Z,83.80
2022-10-20T07:51:47.027Z,83.57
2022-10-20T07:53:49.558Z,83.83
2022-10-20T07:55:51.194Z,83.26
2022-10-20T07:57:52.954Z,83.23
2022-10-20T07:59:54.644Z,83.64
2022-10-20T08:01:58.904Z,83.13
2022-10-20T08:04:01.667Z,83.58
2022-10-20T08:06:04.801Z,84.14
2022-10-20T08:08:06.581Z,83.87
2022-10-20T08:10:08.682Z,83.63
2022-10-20T08:12:10.351Z,84.12
2022-10-20T08:14:11.977Z,84.38
2022-10-20T08:16:17.604Z,84.20
2022-10-20T08:18:19.356Z,84.70
2022-10-20T08:20:33.285Z,84.49
2022-10-20T08:22:35.744Z,85.29
2022-10-20T08:24:37.563Z,84.94
2022-10-20T08:26:39.322Z,85.51
2022-10-20T08:28:41.158Z,85.17
2022-10-20T08:30:42.824Z,85.87
2022-10-20T08:32:44.654Z,85.74
2022-10-20T08:34:46.708Z,85.54
2022-10-20T08:36:48.382Z,85.46
2022-10-20T08:38:50.016Z,85.14
2022-10-20T08:40:51.899Z,85.06
2022-10-20T08:42:54.326Z,85.06
2022-10-20T08:45:00.370Z,85.24
2022-10-20T08:47:04.142Z,85.03
2022-10-20T08:49:20.009Z,85.32
2022-10-20T08:51:24.429Z,85.58
2022-10-20T08:53:27.636Z,85.28
2022-10-20T08:55:33.756Z,84.94
2022-10-20T08:57:36.685Z,84.73
2022-10-20T08:59:39.609Z,84.90
2022-10-20T09:01:41.642Z,84.34
2022-10-20T09:03:44.156Z,84.58
2022-10-20T09:05:49.861Z,84.79
2022-10-20T09:07:52.552Z,85.03
2022-10-20T09:10:02.745Z,84.59
2022-10-20T09:12:07.342Z,84.21
2022-10-20T09:14:11.130Z,84.22
2022-10-20T09:16:41.613Z,84.76
2022-10-20T09:19:01.319Z,84.64
2022-10-20T09:21:09.110Z,84.88
2022-10-20T09:23:35.261Z,84.42
2022-10-20T09:25:37.161Z,84.18
2022-10-20T09:27:43.003Z,84.31
2022-10-20T09:29:45.673Z,84.85
2022-10-20T09:31:55.294Z,84.57
2022-10-20T09:34:00.057Z,84.06
2022-10-20T09:36:14.613Z,84.12
2022-10-20T09:38:22.589Z,84.05
2022-10-20T09:40:26.603Z,83.94
2022-10-20T09:42:35.460Z,83.60
2022-10-20T09:44:49.905Z,84.06
2022-10-20T09:46:54.504Z,83.89
2022-10-20T09:48:57.534Z,84.23
2022-10-20T09:51:00.447Z,84.01
2022-10-20T09:53:06.584Z,84.21
2022-10-20T09:55:25.230Z,84.54
2022-10-20T09:57:27.171Z,84.92
2022-10-20T09:59:44.509Z,83.45
2022-10-20T10:02:00.525Z,83.26
2022-10-20T10:04:02.305Z,83.97
2022-10-20T10:06:28.360Z,83.13
2022-10-20T10:08:45.148Z,82.77
2022-10-20T10:11:02.335Z,83.03
2022-10-20T10:15:33.951Z,83.45
2022-10-20T10:17:41.880Z,83.78
2022-10-20T10:19:52.520Z,83.86
2022-10-20T10:22:00.492Z,82.93
2022-10-20T10:24:04.360Z,83.31
2022-10-20T10:26:34.793Z,83.21
2022-10-20T10:28:39.343Z,83.24
2022-10-20T10:30:45.764Z,83.32
2022-10-20T10:32:49.989Z,82.53
2022-10-20T10:35:04.894Z,81.84
2022-10-20T10:37:14.229Z,81.56
2022-10-20T10:39:16.573Z,81.68
2022-10-20T10:41:29.335Z,82.34
2022-10-20T10:43:55.401Z,82.84
2022-10-20T10:45:57.029Z,82.68
2022-10-20T10:48:16.455Z,80.95
2022-10-20T10:50:27.083Z,79.98
2022-10-20T10:52:56.832Z,80.40
2022-10-20T10:55:43.754Z,80.64
2022-10-20T10:58:02.489Z,81.77
2022-10-20T11:00:15.129Z,82.19
2022-10-20T11:02:39.062Z,82.53
2022-10-20T11:05:02.557Z,80.72
2022-10-20T11:07:40.772Z,80.70
2022-10-20T11:09:59.866Z,81.68
2022-10-20T11:12:13.274Z,80.31
2022-10-20T11:14:36.234Z,80.40
2022-10-20T11:16:59.592Z,80.47
2022-10-20T11:19:30.737Z,77.16
2022-10-20T11:22:02.683Z,77.69
2022-10-20T11:24:07.375Z,78.54
2022-10-20T11:26:23.119Z,77.40
2022-10-20T11:28:32.020Z,77.88
2022-10-20T11:30:34.252Z,78.38
2022-10-20T11:33:09.097Z,78.42
2022-10-20T11:35:22.986Z,76.94
2022-10-20T11:37:36.692Z,75.61
2022-10-20T11:40:10.701Z,75.70
2022-10-20T11:42:30.746Z,76.51
2022-10-20T11:44:39.482Z,76.56
2022-10-20T11:47:02.543Z,76.58
2022-10-20T11:49:04.590Z,76.29
2022-10-20T11:51:31.150Z,76.76
2022-10-20T11:53:35.696Z,76.13
2022-10-20T11:56:02.313Z,75.11
2022-10-20T11:58:36.784Z,75.83
2022-10-20T12:00:54.048Z,75.44
2022-10-20T12:03:24.903Z,75.93
2022-10-20T12:05:47.616Z,76.19
2022-10-20T12:08:29.610Z,76.11
2022-10-20T12:10:43.067Z,77.02
2022-10-20T12:12:50.513Z,77.58
2022-10-20T12:15:02.568Z,78.37
2022-10-20T12:17:13.143Z,78.38
2022-10-20T12:19:21.751Z,78.39
2022-10-20T12:21:56.789Z,78.43
2022-10-20T12:24:03.216Z,78.54
2022-10-20T12:26:24.787Z,78.30
2022-10-20T12:28:29.525Z,78.17
2022-10-20T12:30:43.014Z,79.74
2022-10-20T12:32:53.592Z,78.84
2022-10-20T12:34:56.891Z,78.71
2022-10-20T12:37:29.427Z,77.47
2022-10-20T12:39:31.111Z,76.30
2022-10-20T12:41:35.720Z,75.84
2022-10-20T12:43:53.202Z,75.83
2022-10-20T12:45:59.577Z,75.18
2022-10-20T12:48:03.129Z,75.43
2022-10-20T12:50:28.127Z,75.03
2022-10-20T12:52:40.417Z,74.55
2022-10-20T12:54:48.346Z,75.86
2022-10-20T12:57:05.139Z,74.05
2022-10-20T12:59:19.951Z,72.63
2022-10-20T13:01:21.768Z,73.20
2022-10-20T13:03:32.522Z,73.08
2022-10-20T13:05:42.609Z,72.33
2022-10-20T13:07:47.093Z,72.44
2022-10-20T13:09:59.017Z,72.68
2022-10-20T13:12:04.801Z,73.04
2022-10-20T13:14:12.588Z,73.27
2022-10-20T13:16:20.345Z,74.07
2022-10-20T13:18:27.962Z,74.11
2022-10-20T13:20:46.810Z,74.50
2022-10-20T13:22:53.028Z,74.26
2022-10-20T13:24:56.848Z,74.05
2022-10-20T13:27:10.235Z,75.13
2022-10-20T13:29:19.160Z,75.47
2022-10-20T13:31:33.013Z,75.50
2022-10-20T13:34:03.794Z,77.10
2022-10-20T13:36:19.199Z,77.58
2022-10-20T13:38:31.227Z,78.32
2022-10-20T13:40:39.703Z,78.35
2022-10-20T13:42:52.942Z,77.88
2022-10-20T13:45:31.732Z,78.07
2022-10-20T13:47:52.214Z,78.97
2022-10-20T13:50:11.219Z,79.28
2022-10-20T13:52:15.837Z,80.22
2022-10-20T13:54:31.785Z,80.74
2022-10-20T13:56:46.395Z,77.55
2022-10-20T13:59:17.834Z,76.58
2022-10-20T14:01:24.421Z,73.24
2022-10-20T14:03:26.351Z,74.52
2022-10-20T14:05:31.714Z,73.70
2022-10-20T14:07:41.799Z,74.72
2022-10-20T14:09:46.782Z,73.53
2022-10-20T14:11:55.939Z,72.83
2022-10-20T14:14:01.641Z,69.70
2022-10-20T14:16:16.189Z,70.20
2022-10-20T14:18:39.919Z,69.16
2022-10-20T14:20:42.012Z,69.65
2022-10-20T14:22:44.967Z,69.69
2022-10-20T14:24:48.640Z,69.43
2022-10-20T14:26:51.632Z,68.41
2022-10-20T14:28:54.471Z,69.30
2022-10-20T14:30:56.527Z,71.71
2022-10-20T14:32:58.862Z,69.53
2022-10-20T14:35:14.648Z,69.47
2022-10-20T14:37:38.132Z,68.37
2022-10-20T14:39:40.964Z,69.55
2022-10-20T14:41:46.550Z,70.04
2022-10-20T14:43:52.263Z,68.16
2022-10-20T14:46:00.567Z,67.30
2022-10-20T14:48:02.745Z,67.41
2022-10-20T14:50:05.614Z,68.15
2022-10-20T14:52:20.386Z,67.86
2022-10-20T14:54:30.303Z,67.69
2022-10-20T14:56:32.373Z,69.13
2022-10-20T14:58:54.394Z,69.02
2022-10-20T15:01:19.971Z,67.47
2022-10-20T15:03:21.915Z,66.72
2022-10-20T15:05:26.457Z,67.32
2022-10-20T15:07:35.444Z,67.20
2022-10-20T15:09:43.962Z,67.09
2022-10-20T15:11:45.746Z,66.40
2022-10-20T15:13:53.062Z,65.43
2022-10-20T15:15:55.643Z,65.96
2022-10-20T15:18:06.512Z,65.62
2022-10-20T15:20:40.411Z,64.41
2022-10-20T15:22:42.708Z,63.12
2022-10-20T15:24:46.501Z,63.07
2022-10-20T15:26:48.281Z,62.76
2022-10-20T15:28:50.535Z,63.09
2022-10-20T15:30:52.599Z,63.27
2022-10-20T15:32:54.841Z,63.29
2022-10-20T15:34:56.623Z,63.67
2022-10-20T15:37:07.649Z,64.02
2022-10-20T15:39:09.592Z,64.83
2022-10-20T15:41:28.298Z,64.89
2022-10-20T15:43:30.163Z,64.82
2022-10-20T15:45:40.693Z,65.31
2022-10-20T15:47:42.640Z,63.40
2022-10-20T15:49:44.435Z,63.71
2022-10-20T15:51:47.702Z,63.64
2022-10-20T15:53:50.169Z,62.53
2022-10-20T15:55:51.995Z,62.68
2022-10-20T15:57:54.973Z,63.64
2022-10-20T15:59:56.823Z,64.11
2022-10-20T16:01:58.628Z,63.84
2022-10-20T16:04:26.300Z,64.23
2022-10-20T16:06:28.353Z,64.19
2022-10-20T16:08:30.276Z,64.53
2022-10-20T16:10:32.215Z,64.09
2022-10-20T16:12:35.198Z,64.32
2022-10-20T16:14:38.316Z,64.37
2022-10-20T16:16:40.153Z,64.26
2022-10-20T16:18:42.052Z,64.08
2022-10-20T16:20:43.810Z,64.15
2022-10-20T16:22:45.671Z,64.77
2022-10-20T16:24:48.048Z,65.04
2022-10-20T16:26:49.924Z,65.04
2022-10-20T16:28:51.759Z,65.41
2022-10-20T16:31:02.468Z,65.31
2022-10-20T16:33:04.146Z,65.13
2022-10-20T16:35:06.499Z,65.45
2022-10-20T16:37:08.594Z,65.54
2022-10-20T16:39:11.893Z,65.72
2022-10-20T16:41:15.752Z,65.65
2022-10-20T16:43:17.568Z,66.04
2022-10-20T16:45:19.418Z,65.92
2022-10-20T16:47:21.309Z,65.75
2022-10-20T16:49:23.083Z,65.96
2022-10-20T16:51:24.885Z,65.62
2022-10-20T16:53:26.686Z,65.78
2022-10-20T16:55:28.663Z,66.12
2022-10-20T16:57:38.120Z,66.08
2022-10-20T16:59:41.409Z,65.90
2022-10-20T17:01:43.305Z,65.77
2022-10-20T17:03:47.868Z,66.10
2022-10-20T17:05:57.417Z,66.23
2022-10-20T17:07:59.234Z,66.46
2022-10-20T17:10:00.994Z,65.46
2022-10-20T17:12:02.855Z,65.29
2022-10-20T17:14:04.710Z,65.59
2022-10-20T17:16:18.131Z,65.52
2022-10-20T17:18:21.001Z,65.92
2022-10-20T17:20:22.936Z,66.04
2022-10-20T17:22:24.813Z,66.02
2022-10-20T17:24:26.693Z,66.30
2022-10-20T17:26:33.365Z,66.36
2022-10-20T17:28:37.453Z,66.60
2022-10-20T17:30:46.547Z,66.58
2022-10-20T17:32:48.288Z,66.73
2022-10-20T17:34:50.156Z,66.49
2022-10-20T17:37:01.942Z,66.61
2022-10-20T17:39:11.038Z,66.62
2022-10-20T17:41:15.624Z,67.20
2022-10-20T17:43:18.835Z,67.67
2022-10-20T17:45:20.745Z,67.42
2022-10-20T17:47:22.486Z,68.09
2022-10-20T17:49:24.318Z,67.67
2022-10-20T17:51:29.088Z,68.04
2022-10-20T17:53:35.547Z,67.47
2022-10-20T17:55:37.372Z,68.08
2022-10-20T17:57:39.234Z,68.17
2022-10-20T17:59:52.427Z,68.23
2022-10-20T18:01:56.636Z,68.40
2022-10-20T18:04:04.996Z,68.28
2022-10-20T18:06:10.817Z,68.68
2022-10-20T18:08:12.809Z,68.79
2022-10-20T18:10:15.034Z,68.81
2022-10-20T18:12:16.929Z,68.77
2022-10-20T18:14:19.244Z,69.15
2022-10-20T18:16:21.602Z,68.67
2022-10-20T18:18:23.502Z,69.07
2022-10-20T18:20:25.184Z,69.05
2022-10-20T18:22:27.585Z,68.79
2022-10-20T18:24:30.164Z,69.26
2022-10-20T18:26:35.762Z,69.08
2022-10-20T18:28:43.096Z,69.54
2022-10-20T18:30:47.477Z,69.47
2022-10-20T18:32:49.118Z,69.80
2022-10-20T18:34:50.935Z,69.92
2022-10-20T18:37:03.664Z,69.71
2022-10-20T18:39:06.222Z,70.28
2022-10-20T18:41:09.008Z,70.63
2022-10-20T18:43:10.668Z,70.54
2022-10-20T18:45:12.328Z,70.91
2022-10-20T18:47:13.963Z,71.06
2022-10-20T18:49:19.775Z,70.91
2022-10-20T18:51:22.118Z,70.82
2022-10-20T18:53:24.768Z,71.27
2022-10-20T18:55:26.512Z,71.32
2022-10-20T18:57:31.301Z,71.44
2022-10-20T18:59:33.137Z,72.06
2022-10-20T19:01:37.653Z,71.75
2022-10-20T19:03:40.678Z,72.03
2022-10-20T19:05:42.358Z,72.38
2022-10-20T19:07:44.043Z,72.46
2022-10-20T19:09:45.877Z,72.66
2022-10-20T19:13:56.056Z,73.20
2022-10-20T19:15:59.596Z,73.59
2022-10-20T19:18:01.740Z,73.45
2022-10-20T19:20:03.780Z,73.79
2022-10-20T19:22:05.448Z,73.92
2022-10-20T19:24:19.488Z,73.87
2022-10-20T19:26:25.393Z,74.14
2022-10-20T19:28:27.076Z,74.36
2022-10-20T19:30:34.439Z,74.55
2022-10-20T19:32:40.240Z,74.86
2022-10-20T19:34:51.287Z,74.38
2022-10-20T19:37:03.500Z,74.31
2022-10-20T19:39:10.911Z,74.79
2022-10-20T19:41:36.200Z,74.49
2022-10-20T19:43:39.139Z,74.36
2022-10-20T19:45:40.945Z,74.16
2022-10-20T19:47:42.587Z,74.15
2022-10-20T19:49:45.273Z,74.18
2022-10-20T19:51:47.170Z,74.28
2022-10-20T19:53:49.520Z,74.48
2022-10-20T19:55:51.398Z,74.66
2022-10-20T19:57:53.721Z,74.67
2022-10-20T19:59:55.505Z,74.80
2022-10-20T20:01:57.194Z,74.79
2022-10-20T20:03:59.901Z,74.98
2022-10-20T20:06:11.127Z,75.11
2022-10-20T20:08:12.927Z,75.42
2022-10-20T20:10:41.689Z,74.75
2022-10-20T20:13:05.229Z,75.43
2022-10-20T20:17:45.279Z,74.45
2022-10-20T20:20:09.622Z,74.77
2022-10-20T20:22:32.643Z,74.82
2022-10-20T20:24:34.310Z,74.48
2022-10-20T20:43:16.950Z,74.73
2022-10-20T20:45:18.605Z,74.50
2022-10-20T20:47:20.257Z,74.42
2022-10-20T20:49:21.936Z,74.13
2022-10-20T20:51:25.228Z,73.93
2022-10-20T20:53:27.186Z,73.55
2022-10-20T20:55:29.245Z,73.95
2022-10-20T20:57:30.922Z,73.56
2022-10-20T20:59:32.571Z,73.51
2022-10-20T21:01:34.371Z,73.79
2022-10-20T21:03:36.386Z,74.03
2022-10-20T21:05:38.195Z,73.64
2022-10-20T21:07:40.069Z,73.65
2022-10-20T21:09:41.873Z,73.87
2022-10-20T21:11:43.603Z,73.50
2022-10-20T21:13:46.720Z,73.90
2022-10-20T21:15:48.338Z,73.80
2022-10-20T21:17:49.965Z,74.18
2022-10-20T21:19:51.659Z,74.18
2022-10-20T21:22:01.444Z,74.17
2022-10-20T21:24:04.796Z,74.26
2022-10-20T21:26:07.963Z,74.62
2022-10-20T21:28:09.629Z,74.89
2022-10-20T21:30:11.529Z,74.71
2022-10-20T21:32:13.230Z,75.02
2022-10-20T21:34:14.984Z,75.01
2022-10-20T21:36:22.595Z,75.29
2022-10-20T21:38:29.168Z,75.80
2022-10-20T21:40:31.829Z,75.85
2022-10-20T21:42:33.466Z,75.59
2022-10-20T21:44:35.209Z,75.66
2022-10-20T21:46:47.523Z,75.90
2022-10-20T21:48:51.761Z,75.35
2022-10-20T21:50:53.396Z,74.97
2022-10-20T21:52:55.054Z,75.32
2022-10-20T21:54:56.710Z,74.74
2022-10-20T21:57:00.600Z,74.94
2022-10-20T21:59:02.838Z,74.79
2022-10-20T22:01:13.581Z,74.75
2022-10-20T22:03:15.143Z,75.02
2022-10-20T22:05:16.909Z,75.10
2022-10-20T22:07:18.576Z,75.31
2022-10-20T22:09:21.507Z,75.25
2022-10-20T22:11:24.786Z,75.31
2022-10-20T22:13:26.550Z,75.46
2022-10-20T22:15:28.178Z,75.30
2022-10-20T22:17:29.855Z,75.50
2022-10-20T22:19:31.610Z,75.36
2022-10-20T22:21:37.717Z,75.30
2022-10-20T22:23:39.549Z,75.04
2022-10-20T22:25:41.251Z,74.69
2022-10-20T22:27:42.971Z,75.14
2022-10-20T22:29:44.615Z,75.34
2022-10-20T22:31:46.699Z,75.34
2022-10-20T22:33:49.237Z,74.88
2022-10-20T22:35:50.856Z,74.79
2022-10-20T22:37:53.122Z,74.96
2022-10-20T22:39:54.763Z,75.00
2022-10-20T22:41:56.459Z,74.73
2022-10-20T22:43:58.500Z,75.11
2022-10-20T22:46:00.295Z,74.79
2022-10-20T22:48:02.022Z,74.67
2022-10-20T22:50:04.147Z,74.57
2022-10-20T22:52:05.800Z,74.50
2022-10-20T22:54:08.570Z,74.62
2022-10-20T22:56:15.677Z,74.71
2022-10-20T22:58:17.430Z,74.77
2022-10-20T23:00:20.311Z,74.44
2022-10-20T23:02:22.006Z,74.17
2022-10-20T23:04:23.699Z,74.15
2022-10-20T23:06:26.402Z,73.74
2022-10-20T23:08:30.638Z,74.20
2022-10-20T23:10:34.416Z,74.39
2022-10-20T23:12:36.427Z,73.84
2022-10-20T23:14:38.300Z,74.22
2022-10-20T23:16:39.994Z,74.26
2022-10-20T23:18:41.740Z,73.97
2022-10-20T23:20:43.376Z,74.38
2022-10-20T23:22:45.738Z,74.38
2022-10-20T23:24:48.022Z,74.55
2022-10-20T23:26:51.103Z,74.26
2022-10-20T23:28:53.076Z,74.37
2022-10-20T23:31:05.914Z,74.08
2022-10-20T23:33:07.540Z,74.01
2022-10-20T23:35:09.766Z,74.39
2022-10-20T23:37:11.588Z,74.37
2022-10-20T23:39:13.281Z,73.92
2022-10-20T23:41:15.178Z,74.56
2022-10-20T23:43:16.915Z,74.50
2022-10-20T23:45:18.580Z,74.39
2022-10-20T23:47:20.322Z,74.85
2022-10-20T23:49:21.926Z,74.41
2022-10-20T23:51:23.559Z,74.58
2022-10-20T23:53:25.638Z,74.75
2022-10-20T23:55:27.286Z,74.97
2022-10-20T23:57:28.976Z,74.90
2022-10-20T23:59:30.658Z,74.97
